createdAt,value
2023-01-04T00:04:54.347Z,1.10
2023-01-04T00:09:59.236Z,0.93
2023-01-04T00:15:03.314Z,1.03
2023-01-04T00:20:06.984Z,1.50
2023-01-04T00:25:11.896Z,1.33
2023-01-04T00:30:15.284Z,0.90
2023-01-04T00:35:44.118Z,0.90
2023-01-04T00:40:43.059Z,0.90
2023-01-04T00:45:46.143Z,0.70
2023-01-04T00:50:50.722Z,0.70
2023-01-04T00:56:01.620Z,0.83
2023-01-04T01:01:06.798Z,0.80
2023-01-04T01:06:10.039Z,0.90
2023-01-04T01:11:15.139Z,0.70
2023-01-04T01:16:37.849Z,0.70
2023-01-04T01:21:44.177Z,1.00
2023-01-04T01:26:48.701Z,0.83
2023-01-04T01:31:51.989Z,1.10
2023-01-04T01:36:55.138Z,1.03
2023-01-04T01:41:59.769Z,1.00
2023-01-04T01:47:03.249Z,1.03
2023-01-04T01:52:11.576Z,0.80
2023-01-04T01:57:20.479Z,0.77
2023-01-04T02:02:24.041Z,0.90
2023-01-04T02:07:30.349Z,1.10
2023-01-04T02:12:34.992Z,1.00
2023-01-04T02:17:46.271Z,1.00
2023-01-04T02:23:18.644Z,1.27
2023-01-04T02:28:33.246Z,1.30
2023-01-04T02:33:48.414Z,1.00
2023-01-04T02:39:04.522Z,1.07
2023-01-04T02:44:32.585Z,1.03
2023-01-04T02:49:57.855Z,1.00
2023-01-04T02:55:08.128Z,0.80
2023-01-04T03:00:25.896Z,0.97
2023-01-04T03:05:53.440Z,1.10
2023-01-04T03:11:02.608Z,0.60
2023-01-04T03:16:10.546Z,0.93
2023-01-04T03:21:17.013Z,0.83
2023-01-04T03:26:49.281Z,0.67
2023-01-04T03:32:16.625Z,0.80
2023-01-04T03:37:26.982Z,0.90
2023-01-04T03:42:55.530Z,0.97
2023-01-04T03:48:20.822Z,1.23
2023-01-04T03:53:27.220Z,0.90
2023-01-04T03:58:30.469Z,1.00
2023-01-04T04:03:51.697Z,1.00
2023-01-04T04:08:56.362Z,1.00
2023-01-04T04:14:00.500Z,1.00
2023-01-04T04:19:08.549Z,1.40
2023-01-04T04:24:18.687Z,1.10
2023-01-04T04:29:22.946Z,1.93
2023-01-04T04:34:26.188Z,1.73
2023-01-04T04:39:30.685Z,1.77
2023-01-04T04:44:36.047Z,2.13
2023-01-04T04:49:39.291Z,1.80
2023-01-04T04:54:43.771Z,2.40
2023-01-04T04:59:47.131Z,3.03
2023-01-04T05:04:50.611Z,2.93
2023-01-04T05:09:55.517Z,1.60
2023-01-04T05:14:58.779Z,2.73
2023-01-04T05:20:02.265Z,2.40
2023-01-04T05:25:08.611Z,2.33
2023-01-04T05:30:31.311Z,2.00
2023-01-04T05:35:34.991Z,2.00
2023-01-04T05:40:39.783Z,2.40
2023-01-04T05:45:44.790Z,2.30
2023-01-04T05:50:48.621Z,2.77
2023-01-04T05:55:53.200Z,2.80
2023-01-04T06:00:56.748Z,2.30
2023-01-04T06:05:59.824Z,2.30
2023-01-04T06:11:04.492Z,2.80
2023-01-04T06:16:07.950Z,2.13
2023-01-04T06:21:11.423Z,2.20
2023-01-04T06:26:15.905Z,2.43
2023-01-04T06:31:18.983Z,1.63
2023-01-04T06:36:22.176Z,1.70
2023-01-04T06:41:27.051Z,1.83
2023-01-04T06:46:30.262Z,2.00
2023-01-04T06:51:33.590Z,2.50
2023-01-04T06:56:38.266Z,1.43
2023-01-04T07:01:41.429Z,1.60
2023-01-04T07:06:44.639Z,1.90
2023-01-04T07:11:49.567Z,1.50
2023-01-04T07:16:52.719Z,1.43
2023-01-04T07:21:55.960Z,1.43
2023-01-04T07:27:01.966Z,1.50
2023-01-04T07:32:11.751Z,1.87
2023-01-04T07:37:17.192Z,1.73
2023-01-04T07:42:22.009Z,1.67
2023-01-04T07:47:25.147Z,1.57
2023-01-04T07:52:28.721Z,1.90
2023-01-04T07:57:33.255Z,1.37
2023-01-04T08:02:36.707Z,1.40
2023-01-04T08:07:39.984Z,1.67
2023-01-04T08:12:44.568Z,1.17
2023-01-04T08:17:47.770Z,1.13
2023-01-04T08:22:50.907Z,1.50
2023-01-04T08:27:55.478Z,0.83
2023-01-04T08:32:58.688Z,1.07
2023-01-04T08:38:28.475Z,1.27
2023-01-04T08:43:26.248Z,1.10
2023-01-04T08:48:29.450Z,1.20
2023-01-04T08:53:33.023Z,1.03
2023-01-04T08:58:39.403Z,1.20
2023-01-04T09:03:43.021Z,1.87
2023-01-04T09:08:46.318Z,1.70
2023-01-04T09:13:59.592Z,1.50
2023-01-04T09:19:08.158Z,2.10
2023-01-04T09:24:11.313Z,1.80
2023-01-04T09:29:15.947Z,2.07
2023-01-04T09:34:19.027Z,1.77
2023-01-04T09:39:24.162Z,2.10
2023-01-04T09:50:03.811Z,2.47
2023-01-04T09:55:39.532Z,2.30
2023-01-04T10:00:43.569Z,2.10
2023-01-04T10:05:47.196Z,2.27
2023-01-04T10:10:58.127Z,2.00
2023-01-04T10:16:12.895Z,2.03
2023-01-04T10:21:34.623Z,1.77
2023-01-04T10:26:46.469Z,1.80
2023-01-04T10:31:55.334Z,1.80
2023-01-04T10:37:02.392Z,1.37
2023-01-04T10:42:18.611Z,1.03
2023-01-04T10:47:31.796Z,1.07
2023-01-04T10:52:44.560Z,0.90
2023-01-04T10:57:54.728Z,1.10
2023-01-04T11:03:09.086Z,1.10
2023-01-04T11:08:22.872Z,1.10
2023-01-04T11:13:27.905Z,1.03
2023-01-04T11:18:34.428Z,1.23
2023-01-04T11:23:37.562Z,1.60
2023-01-04T11:28:45.947Z,0.80
2023-01-04T11:33:56.234Z,1.27
2023-01-04T11:39:00.300Z,1.00
2023-01-04T11:44:06.120Z,0.83
2023-01-04T11:49:20.333Z,0.80
2023-01-04T11:54:24.381Z,1.53
2023-01-04T11:59:27.931Z,0.80
2023-01-04T12:04:35.622Z,0.73
2023-01-04T12:09:40.068Z,0.70
2023-01-04T12:14:48.750Z,1.50
2023-01-04T12:19:56.489Z,0.97
2023-01-04T12:25:01.281Z,0.63
2023-01-04T12:30:08.037Z,0.53
2023-01-04T12:36:07.880Z,0.63
2023-01-04T12:41:12.609Z,0.60
2023-01-04T12:46:59.065Z,0.40
2023-01-04T13:04:39.966Z,0.47
2023-01-04T13:09:50.601Z,0.47
2023-01-04T13:15:03.101Z,0.50
2023-01-04T13:20:18.768Z,0.40
2023-01-04T13:25:24.442Z,0.40
2023-01-04T13:30:37.318Z,0.43
2023-01-04T13:35:41.057Z,0.40
2023-01-04T13:40:49.754Z,0.60
2023-01-04T13:46:07.324Z,0.60
2023-01-04T13:51:17.108Z,0.50
2023-01-04T13:56:22.828Z,0.80
2023-01-04T14:01:31.323Z,0.60
2023-01-04T14:06:42.112Z,0.40
2023-01-04T14:12:07.237Z,0.37
2023-01-04T14:17:36.757Z,0.40
2023-01-04T14:22:53.227Z,0.97
2023-01-04T14:28:22.067Z,0.40
2023-01-04T14:33:32.827Z,0.40
2023-01-04T14:38:38.308Z,0.50
2023-01-04T14:43:47.183Z,0.50
2023-01-04T14:48:52.352Z,0.50
2023-01-04T14:53:56.130Z,0.63
2023-01-04T14:58:59.352Z,0.90
2023-01-04T15:04:04.772Z,0.80
2023-01-04T15:09:08.125Z,0.70
2023-01-04T15:14:11.428Z,0.43
2023-01-04T15:19:16.897Z,0.43
2023-01-04T15:24:20.190Z,0.40
2023-01-04T15:29:24.536Z,0.40
2023-01-04T15:34:29.586Z,0.50
2023-01-04T15:39:32.873Z,0.50
2023-01-04T15:44:36.401Z,0.30
2023-01-04T15:49:42.671Z,0.30
2023-01-04T15:54:46.581Z,0.30
2023-01-04T15:59:50.350Z,0.30
2023-01-04T16:04:55.025Z,0.20
2023-01-04T16:09:58.346Z,0.30
2023-01-04T16:15:02.190Z,0.20
2023-01-04T16:20:08.275Z,0.30
2023-01-04T16:25:12.809Z,0.20
2023-01-04T16:30:16.193Z,0.30
2023-01-04T16:35:20.924Z,0.30
2023-01-04T16:40:26.481Z,0.20
2023-01-04T16:45:29.776Z,0.60
2023-01-04T16:50:34.549Z,0.40
2023-01-04T16:55:37.787Z,4.73
2023-01-04T17:00:41.219Z,3.00
2023-01-04T17:05:46.202Z,1.00
2023-01-04T17:10:49.800Z,0.40
2023-01-04T17:15:53.531Z,0.30
2023-01-04T17:21:31.548Z,0.63
2023-01-04T17:26:26.267Z,0.30
2023-01-04T17:31:32.130Z,0.80
2023-01-04T17:36:38.119Z,0.40
2023-01-04T17:41:42.186Z,0.93
2023-01-04T17:46:45.408Z,0.40
2023-01-04T17:51:51.249Z,0.50
2023-01-04T17:56:54.364Z,0.80
2023-01-04T18:01:58.187Z,0.50
2023-01-04T18:07:03.043Z,0.30
2023-01-04T18:12:06.575Z,0.53
2023-01-04T18:17:09.786Z,0.30
2023-01-04T18:22:14.550Z,0.40
2023-01-04T18:27:26.213Z,0.20
2023-01-04T18:32:29.715Z,0.53
2023-01-04T18:37:34.756Z,0.30
2023-01-04T18:42:38.339Z,0.20
2023-01-04T18:47:41.871Z,0.20
2023-01-04T18:52:46.766Z,0.17
2023-01-04T18:57:50.182Z,0.30
2023-01-04T19:02:53.354Z,0.40
2023-01-04T19:07:58.076Z,0.40
2023-01-04T19:13:01.876Z,2.63
2023-01-04T19:18:05.723Z,0.40
2023-01-04T19:23:10.628Z,0.30
2023-01-04T19:28:14.628Z,0.30
2023-01-04T19:33:18.181Z,0.40
2023-01-04T19:38:22.859Z,0.43
2023-01-04T19:43:26.940Z,0.30
2023-01-04T19:48:32.685Z,0.30
2023-01-04T19:53:38.084Z,0.30
2023-01-04T19:58:42.066Z,0.60
2023-01-04T20:03:45.693Z,0.30
2023-01-04T20:08:50.694Z,0.30
2023-01-04T20:13:53.808Z,0.27
2023-01-04T20:18:57.461Z,0.20
2023-01-04T20:24:03.504Z,0.20
2023-01-04T20:29:07.023Z,0.40
2023-01-04T20:34:10.675Z,0.50
2023-01-04T20:39:15.341Z,0.60
2023-01-04T20:44:18.487Z,0.60
2023-01-04T20:49:22.016Z,0.90
2023-01-04T20:54:27.090Z,0.50
2023-01-04T20:59:31.017Z,0.50
2023-01-04T21:04:34.425Z,0.80
2023-01-04T21:09:39.224Z,0.50
2023-01-04T21:14:43.157Z,0.63
2023-01-04T21:19:46.487Z,0.57
2023-01-04T21:24:50.991Z,0.67
2023-01-04T21:29:54.033Z,0.53
2023-01-04T21:34:58.126Z,0.60
2023-01-04T21:40:02.914Z,0.60
2023-01-04T21:45:07.538Z,1.00
2023-01-04T21:50:16.740Z,1.17
2023-01-04T21:55:21.872Z,0.83
2023-01-04T22:00:25.245Z,0.60
2023-01-04T22:05:28.572Z,0.80
2023-01-04T22:10:33.171Z,0.40
2023-01-04T22:15:40.099Z,0.80
2023-01-04T22:20:43.715Z,0.50
2023-01-04T22:25:48.458Z,1.17
2023-01-04T22:30:51.595Z,1.00
2023-01-04T22:35:54.695Z,0.67
2023-01-04T22:41:00.857Z,0.90
2023-01-04T22:46:06.588Z,0.90
2023-01-04T22:51:12.944Z,0.53
2023-01-04T22:56:21.582Z,0.90
2023-01-04T23:01:28.275Z,0.77
2023-01-04T23:06:32.910Z,0.87
2023-01-04T23:11:38.507Z,1.53
2023-01-04T23:16:41.771Z,1.20
2023-01-04T23:21:45.035Z,1.17
2023-01-04T23:26:49.607Z,1.37
2023-01-04T23:31:52.932Z,1.03
2023-01-04T23:36:56.184Z,1.07
2023-01-04T23:42:01.888Z,1.27
2023-01-04T23:47:07.998Z,1.10
2023-01-04T23:52:13.236Z,1.00
2023-01-04T23:57:18.163Z,1.00
